Time;durP1;ratioP1;P1;durP2;ratioP2;P2;SDS_P1;SDS_P2;PMS_P1;PMS_P2;Temp;Humidity;BMP_temperature;BMP_pressure;BME280_temperature;BME280_humidity;BME280_pressure;Samples;Min_cycle;Max_cycle;Signal;HPM_P1;HPM_P2
2022/11/30 00:01:36;;;;;;;19.35;12.85;;;4.00;99.90;;;;;;6132875;23;20483;-90
2022/11/30 00:04:02;;;;;;;22.63;14.10;;;4.30;99.90;;;;;;6132170;23;20183;-92
2022/11/30 00:06:31;;;;;;;25.13;15.52;;;4.40;99.90;;;;;;6132274;23;20017;-92
2022/11/30 00:08:57;;;;;;;21.80;14.23;;;4.30;99.90;;;;;;6107693;23;20507;-90
2022/11/30 00:11:27;;;;;;;20.10;13.98;;;4.40;99.90;;;;;;6156108;23;20108;-91
2022/11/30 00:13:56;;;;;;;18.73;12.55;;;4.60;99.90;;;;;;6151572;23;20013;-91
2022/11/30 00:16:23;;;;;;;21.42;14.27;;;4.50;99.90;;;;;;6103435;23;20028;-90
2022/11/30 00:18:52;;;;;;;21.15;13.32;;;4.30;99.90;;;;;;6126802;23;20061;-88
2022/11/30 00:21:18;;;;;;;21.15;13.60;;;4.30;99.90;;;;;;6150498;23;20249;-91
2022/11/30 00:23:46;;;;;;;19.00;12.27;;;4.50;99.90;;;;;;6151652;23;20044;-91
2022/11/30 00:26:17;;;;;;;21.55;14.00;;;6.10;99.90;;;;;;6173374;23;20207;-91
2022/11/30 00:28:47;;;;;;;23.83;14.48;;;5.60;99.90;;;;;;6127374;23;20022;-89
2022/11/30 00:31:15;;;;;;;19.35;12.85;;;4.40;99.90;;;;;;6127468;23;20021;-88
2022/11/30 00:33:44;;;;;;;20.42;13.30;;;3.10;99.90;;;;;;6151145;23;20032;-88
2022/11/30 00:36:18;;;;;;;21.02;14.10;;;4.70;99.90;;;;;;6123605;23;20527;-89
2022/11/30 00:38:44;;;;;;;21.90;14.52;;;4.40;99.90;;;;;;6150405;23;20021;-91
2022/11/30 00:41:11;;;;;;;25.42;15.73;;;6.40;99.90;;;;;;6149968;23;20025;-90
2022/11/30 00:43:37;;;;;;;21.58;13.68;;;2.80;99.90;;;;;;6149949;23;20061;-91
2022/11/30 00:46:03;;;;;;;21.52;13.65;;;6.50;99.90;;;;;;6125625;23;20040;-91
2022/11/30 00:48:30;;;;;;;21.05;13.27;;;5.30;99.90;;;;;;6150660;23;20021;-89
2022/11/30 00:50:59;;;;;;;20.77;13.95;;;3.40;99.90;;;;;;6125483;23;20021;-91
2022/11/30 00:53:27;;;;;;;19.58;13.23;;;5.00;99.90;;;;;;6124535;23;20017;-91
2022/11/30 00:55:53;;;;;;;19.38;13.35;;;4.80;99.90;;;;;;6102991;23;20022;-92
2022/11/30 00:58:19;;;;;;;19.00;13.52;;;5.70;99.90;;;;;;6150315;23;20023;-91
2022/11/30 01:00:45;;;;;;;21.83;14.00;;;6.80;99.90;;;;;;6125334;23;20338;-89
2022/11/30 01:03:12;;;;;;;18.20;12.40;;;6.30;99.90;;;;;;6125688;23;20057;-89
2022/11/30 01:05:38;;;;;;;19.17;12.75;;;6.30;99.90;;;;;;6150919;23;20025;-91
2022/11/30 01:08:07;;;;;;;19.67;13.70;;;4.80;99.90;;;;;;6150640;23;20014;-89
2022/11/30 01:10:34;;;;;;;21.95;14.07;;;6.80;99.90;;;;;;6126618;23;20595;-88
2022/11/30 01:13:01;;;;;;;22.48;14.32;;;4.90;99.90;;;;;;6150729;23;20032;-90
2022/11/30 01:15:51;;;;;;;22.38;13.93;;;4.80;99.90;;;;;;6124537;23;20025;-90
2022/11/30 01:18:21;;;;;;;19.85;13.23;;;5.00;99.90;;;;;;6150609;23;20053;-91
2022/11/30 01:20:50;;;;;;;20.17;12.32;;;5.00;99.90;;;;;;6125683;23;20021;-91
2022/11/30 01:23:16;;;;;;;20.77;13.40;;;5.50;99.90;;;;;;6101483;23;20033;-88
2022/11/30 01:25:54;;;;;;;17.98;12.45;;;5.00;99.90;;;;;;6125345;23;20025;-93
2022/11/30 01:28:20;;;;;;;19.10;12.82;;;5.00;99.90;;;;;;6150843;23;20021;-90
2022/11/30 01:30:58;;;;;;;18.08;12.63;;;5.10;99.90;;;;;;6125929;23;20105;-90
2022/11/30 01:33:24;;;;;;;18.42;11.73;;;5.00;99.90;;;;;;6125360;23;20453;-91
2022/11/30 01:36:04;;;;;;;18.35;12.32;;;5.10;99.90;;;;;;6125578;23;20021;-91
2022/11/30 01:38:37;;;;;;;20.05;12.70;;;5.10;99.90;;;;;;6126340;23;20516;-90
2022/11/30 01:41:05;;;;;;;17.25;11.45;;;5.10;99.90;;;;;;6152027;23;20099;-89
2022/11/30 01:43:41;;;;;;;15.13;11.05;;;5.10;99.90;;;;;;6169511;23;20021;-91
2022/11/30 01:46:29;;;;;;;17.35;11.85;;;5.10;99.90;;;;;;6125842;23;20021;-89
2022/11/30 01:49:23;;;;;;;18.20;11.93;;;5.50;99.90;;;;;;6150317;23;20053;-91
2022/11/30 01:52:20;;;;;;;16.08;10.60;;;5.20;99.90;;;;;;6150633;23;20484;-89
2022/11/30 01:55:15;;;;;;;16.33;11.05;;;5.10;99.90;;;;;;6148068;23;20029;-90
2022/11/30 01:57:47;;;;;;;19.98;11.75;;;5.00;99.90;;;;;;6105957;23;20096;-90
2022/11/30 02:00:14;;;;;;;16.73;11.30;;;5.60;99.90;;;;;;6131344;23;20014;-89
2022/11/30 02:02:57;;;;;;;15.82;11.15;;;5.30;99.90;;;;;;6164243;23;20098;-86
2022/11/30 02:05:26;;;;;;;14.40;10.23;;;5.20;99.90;;;;;;6154476;23;20356;-90
2022/11/30 02:07:55;;;;;;;15.65;10.57;;;5.10;99.90;;;;;;6148243;23;20029;-90
2022/11/30 02:10:30;;;;;;;15.95;10.27;;;5.10;99.90;;;;;;6122924;23;20059;-91
2022/11/30 02:13:31;;;;;;;14.93;10.73;;;5.00;99.90;;;;;;6124704;23;20028;-90
2022/11/30 02:16:23;;;;;;;14.55;10.23;;;5.20;99.90;;;;;;6123430;23;20064;-91
2022/11/30 02:19:16;;;;;;;16.08;11.13;;;5.20;99.90;;;;;;6148297;23;20032;-91
2022/11/30 02:21:56;;;;;;;15.55;10.52;;;5.20;99.90;;;;;;6125503;23;20060;-90
2022/11/30 02:24:38;;;;;;;16.27;11.02;;;5.30;99.90;;;;;;6124236;23;20028;-90
2022/11/30 02:27:26;;;;;;;17.92;11.10;;;5.40;99.90;;;;;;6126200;23;20024;-91
2022/11/30 02:29:59;;;;;;;18.77;11.60;;;5.20;99.90;;;;;;6149341;23;20194;-91
2022/11/30 02:32:48;;;;;;;16.95;10.88;;;5.50;99.90;;;;;;6124161;23;20566;-89
2022/11/30 02:35:19;;;;;;;19.27;11.77;;;5.30;99.90;;;;;;6148338;23;20021;-91
2022/11/30 02:37:48;;;;;;;16.65;10.68;;;5.30;99.90;;;;;;6148949;23;20065;-91
2022/11/30 02:40:18;;;;;;;18.73;12.43;;;5.30;99.90;;;;;;6150221;23;20437;-90
2022/11/30 02:42:44;;;;;;;19.80;12.32;;;5.30;99.90;;;;;;6150519;23;20021;-91
2022/11/30 02:45:18;;;;;;;17.88;11.93;;;5.90;99.90;;;;;;6149049;23;20100;-89
2022/11/30 02:48:13;;;;;;;18.65;12.65;;;5.30;99.90;;;;;;6149378;23;20022;-92
2022/11/30 02:50:47;;;;;;;22.45;14.00;;;5.40;99.90;;;;;;6147114;23;20507;-88
2022/11/30 02:53:13;;;;;;;23.33;13.70;;;5.30;99.90;;;;;;6147906;23;20679;-89
2022/11/30 02:55:39;;;;;;;17.90;11.65;;;5.80;99.90;;;;;;6124431;23;20029;-91
2022/11/30 02:58:05;;;;;;;18.50;12.40;;;5.40;99.90;;;;;;6124777;23;20192;-92
2022/11/30 03:00:31;;;;;;;18.92;12.77;;;6.70;99.90;;;;;;6123285;23;20377;-91
2022/11/30 03:02:57;;;;;;;19.10;12.45;;;5.70;99.90;;;;;;6100771;23;20576;-92
2022/11/30 03:05:25;;;;;;;19.20;12.43;;;5.40;99.90;;;;;;6102601;23;20053;-90
2022/11/30 03:07:51;;;;;;;19.25;12.52;;;4.40;99.90;;;;;;6126696;23;20309;-91
2022/11/30 03:10:19;;;;;;;19.20;12.48;;;5.50;99.90;;;;;;6148863;23;20053;-91
2022/11/30 03:12:45;;;;;;;17.23;11.70;;;5.40;99.90;;;;;;6100247;23;20018;-90
2022/11/30 03:15:11;;;;;;;19.17;12.55;;;3.90;99.90;;;;;;6124683;23;20113;-92
2022/11/30 03:17:37;;;;;;;18.73;11.93;;;5.50;99.90;;;;;;6123792;23;20441;-91
2022/11/30 03:20:06;;;;;;;19.35;12.20;;;5.50;99.90;;;;;;6099750;23;20025;-89
2022/11/30 03:22:32;;;;;;;19.65;12.40;;;5.50;99.90;;;;;;6124437;23;20018;-90
2022/11/30 03:24:58;;;;;;;19.02;11.90;;;5.90;99.90;;;;;;6124696;23;20035;-91
2022/11/30 03:27:26;;;;;;;21.48;13.48;;;5.50;99.90;;;;;;6124903;23;20077;-91
2022/11/30 03:29:52;;;;;;;18.35;11.80;;;5.90;99.90;;;;;;6098912;23;20141;-89
2022/11/30 03:32:18;;;;;;;18.60;12.07;;;5.50;99.90;;;;;;6124285;23;20327;-90
2022/11/30 03:34:44;;;;;;;19.60;12.43;;;5.50;99.90;;;;;;6100278;23;20080;-92
2022/11/30 03:37:12;;;;;;;19.75;12.45;;;5.80;99.90;;;;;;6124899;23;20025;-91
2022/11/30 03:39:38;;;;;;;18.10;11.82;;;5.70;99.90;;;;;;6124574;23;20108;-91
2022/11/30 03:42:06;;;;;;;20.35;12.77;;;5.70;99.90;;;;;;6149392;23;20049;-92
2022/11/30 03:44:32;;;;;;;18.15;11.77;;;5.80;99.90;;;;;;6125196;23;20018;-90
2022/11/30 03:47:01;;;;;;;17.90;11.88;;;5.70;99.90;;;;;;6125427;23;20026;-90
2022/11/30 03:49:26;;;;;;;19.67;12.45;;;5.70;99.90;;;;;;6125243;23;20450;-88
2022/11/30 03:51:52;;;;;;;21.27;12.57;;;5.60;99.90;;;;;;6126140;23;20024;-90
2022/11/30 03:54:20;;;;;;;19.05;12.40;;;5.60;99.90;;;;;;6126378;23;20022;-90
2022/11/30 03:56:46;;;;;;;20.73;13.40;;;5.70;99.90;;;;;;6131060;23;20104;-88
2022/11/30 03:59:12;;;;;;;19.80;12.75;;;5.70;99.90;;;;;;6137736;23;20040;-91
2022/11/30 04:01:39;;;;;;;18.75;12.98;;;5.90;99.90;;;;;;6126359;23;20029;-88
2022/11/30 04:04:06;;;;;;;20.05;12.52;;;5.80;99.90;;;;;;6126533;23;20087;-90
2022/11/30 04:06:33;;;;;;;20.10;13.10;;;5.80;99.90;;;;;;6125789;23;20022;-92
2022/11/30 04:09:02;;;;;;;22.75;13.43;;;5.90;99.90;;;;;;6126595;23;20156;-92
2022/11/30 04:11:28;;;;;;;21.58;13.02;;;5.70;99.90;;;;;;6150415;23;20030;-90
2022/11/30 04:13:54;;;;;;;24.27;14.95;;;5.70;99.90;;;;;;6152205;23;20446;-91
2022/11/30 04:16:20;;;;;;;26.38;15.95;;;6.00;99.90;;;;;;6130694;23;20025;-89
2022/11/30 04:18:46;;;;;;;24.33;14.45;;;5.10;99.90;;;;;;6130730;23;20021;-89
2022/11/30 04:21:11;;;;;;;28.50;15.55;;;5.90;99.90;;;;;;6131270;23;20013;-93
2022/11/30 04:23:40;;;;;;;28.42;15.88;;;6.50;99.90;;;;;;6131517;23;20017;-90
2022/11/30 04:26:10;;;;;;;26.10;14.88;;;7.40;99.90;;;;;;6083710;23;20025;-89
2022/11/30 04:28:59;;;;;;;24.73;13.80;;;5.80;99.90;;;;;;6156289;23;20032;-90
2022/11/30 04:31:25;;;;;;;27.50;15.43;;;6.10;99.90;;;;;;6154625;23;20023;-91
2022/11/30 04:33:54;;;;;;;23.67;14.57;;;5.90;99.90;;;;;;6131202;23;20456;-92
2022/11/30 04:36:23;;;;;;;27.88;15.52;;;;;;;;;;6105623;23;20021;-88
2022/11/30 04:38:51;;;;;;;24.50;14.60;;;4.40;99.90;;;;;;6130172;23;20100;-89
2022/11/30 04:41:17;;;;;;;26.48;14.88;;;6.00;99.90;;;;;;6153740;23;20013;-92
2022/11/30 04:43:43;;;;;;;27.38;15.05;;;6.20;99.90;;;;;;6129991;23;20021;-91
2022/11/30 04:46:09;;;;;;;25.85;13.63;;;6.10;99.90;;;;;;6131094;23;20515;-90
2022/11/30 04:48:35;;;;;;;27.17;15.68;;;6.10;99.90;;;;;;6155060;23;20095;-89
2022/11/30 04:51:05;;;;;;;23.60;14.55;;;6.20;99.90;;;;;;6129883;23;20017;-90
2022/11/30 04:53:32;;;;;;;26.50;15.20;;;6.10;99.90;;;;;;6154496;23;20032;-90
2022/11/30 04:56:02;;;;;;;20.70;12.88;;;6.00;99.90;;;;;;6155431;23;20476;-90
2022/11/30 04:58:30;;;;;;;24.10;14.55;;;6.20;99.90;;;;;;6155181;23;20095;-90
2022/11/30 05:00:56;;;;;;;28.00;16.05;;;5.00;99.90;;;;;;6106441;23;20016;-90
2022/11/30 05:03:25;;;;;;;27.60;15.77;;;5.40;99.90;;;;;;6131754;23;20021;-89
2022/11/30 05:05:51;;;;;;;25.92;15.23;;;7.20;99.90;;;;;;6156492;23;20135;-90
2022/11/30 05:08:16;;;;;;;25.05;14.85;;;6.10;99.90;;;;;;6131555;23;20460;-90
2022/11/30 05:10:42;;;;;;;27.80;16.27;;;6.30;99.90;;;;;;6119930;23;20017;-89
2022/11/30 05:13:09;;;;;;;27.90;15.75;;;6.20;99.90;;;;;;6118525;23;20017;-90
2022/11/30 05:15:35;;;;;;;28.77;15.65;;;6.40;99.90;;;;;;6132726;23;20079;-89
2022/11/30 05:18:01;;;;;;;24.00;13.57;;;6.00;99.90;;;;;;6153734;23;20559;-91
2022/11/30 05:20:27;;;;;;;25.55;14.30;;;6.00;99.90;;;;;;6129196;23;20021;-90
2022/11/30 05:22:56;;;;;;;27.17;15.38;;;6.10;99.90;;;;;;6155433;23;20028;-91
2022/11/30 05:25:22;;;;;;;28.38;15.95;;;6.40;99.90;;;;;;6128735;23;20017;-89
2022/11/30 05:27:48;;;;;;;30.48;16.35;;;6.20;99.90;;;;;;6079839;23;20079;-91
2022/11/30 05:30:14;;;;;;;31.45;17.17;;;8.00;99.90;;;;;;6127989;23;20104;-89
2022/11/30 05:32:40;;;;;;;26.10;15.32;;;5.70;99.90;;;;;;6128709;23;20391;-89
2022/11/30 05:35:06;;;;;;;26.80;15.52;;;6.60;99.90;;;;;;6129347;23;20100;-91
2022/11/30 05:37:32;;;;;;;27.02;15.73;;;6.10;99.90;;;;;;6129301;23;20094;-86
2022/11/30 05:39:57;;;;;;;31.27;17.38;;;6.60;99.90;;;;;;6129135;23;20025;-89
2022/11/30 05:42:23;;;;;;;30.42;16.50;;;6.10;99.90;;;;;;6104750;23;20021;-88
2022/11/30 05:44:49;;;;;;;27.45;16.63;;;5.20;99.90;;;;;;6130061;23;20016;-88
2022/11/30 05:47:16;;;;;;;29.52;16.42;;;6.50;99.90;;;;;;6106079;23;20025;-89
2022/11/30 05:49:45;;;;;;;27.90;15.50;;;7.20;99.90;;;;;;6154323;23;20075;-89
2022/11/30 05:52:13;;;;;;;30.98;16.63;;;6.20;99.90;;;;;;6105176;23;20036;-89
2022/11/30 05:54:39;;;;;;;34.03;17.33;;;6.20;99.90;;;;;;6130074;23;20028;-87
2022/11/30 05:57:07;;;;;;;35.65;19.25;;;6.20;99.90;;;;;;6131585;23;20441;-89
2022/11/30 05:59:50;;;;;;;34.45;18.90;;;6.80;99.90;;;;;;6106080;23;20021;-90
2022/11/30 06:02:31;;;;;;;;;;;;;;;;;;;;;
2022/11/30 06:04:57;;;;;;;32.35;17.63;;;6.30;99.90;;;;;;6156348;23;20848;-92
2022/11/30 06:07:26;;;;;;;32.00;18.30;;;6.30;99.90;;;;;;6131481;23;20091;-88
2022/11/30 06:10:02;;;;;;;34.47;18.98;;;6.20;99.90;;;;;;6154719;23;20044;-88
2022/11/30 06:12:28;;;;;;;;;;;5.80;99.90;;;;;;6127812;23;20028;-90
2022/11/30 06:14:57;;;;;;;32.60;18.08;;;6.30;99.90;;;;;;6153016;23;19928;-88
2022/11/30 06:17:38;;;;;;;35.50;19.25;;;5.30;99.90;;;;;;6152380;23;20025;-90
2022/11/30 06:20:14;;;;;;;29.30;16.17;;;6.20;99.90;;;;;;6129346;23;20143;-90
2022/11/30 06:23:01;;;;;;;;;;;;;;;;;;;;;
2022/11/30 06:25:27;;;;;;;;;;;6.40;99.90;;;;;;6128052;23;20052;-91
2022/11/30 06:27:53;;;;;;;29.95;15.77;;;6.10;99.90;;;;;;6149421;23;19920;-88
2022/11/30 06:30:24;;;;;;;26.02;16.17;;;6.00;99.90;;;;;;6151061;23;20013;-88
2022/11/30 06:33:00;;;;;;;24.65;15.15;;;6.10;99.90;;;;;;6126190;23;20052;-89
2022/11/30 06:35:34;;;;;;;26.30;16.00;;;6.10;99.90;;;;;;6126008;23;20059;-89
2022/11/30 06:38:08;;;;;;;23.73;15.10;;;6.10;99.90;;;;;;6102400;23;20076;-88
2022/11/30 06:40:36;;;;;;;21.33;13.77;;;5.60;99.90;;;;;;6102612;23;20092;-88
2022/11/30 06:43:02;;;;;;;29.42;16.20;;;4.80;99.90;;;;;;6127622;23;20056;-89
2022/11/30 06:45:30;;;;;;;24.15;15.13;;;6.50;99.90;;;;;;6151916;23;20025;-91
2022/11/30 06:47:59;;;;;;;24.75;15.40;;;6.00;99.90;;;;;;6127123;23;20025;-91
2022/11/30 06:50:25;;;;;;;22.95;14.13;;;6.10;99.90;;;;;;6150739;23;20017;-90
2022/11/30 06:52:57;;;;;;;24.90;15.00;;;6.10;99.90;;;;;;6125362;23;20017;-90
2022/11/30 06:55:31;;;;;;;24.23;14.13;;;6.10;99.90;;;;;;6102906;23;20070;-89
2022/11/30 06:58:07;;;;;;;26.45;15.07;;;5.70;99.90;;;;;;6153379;23;20025;-91
2022/11/30 07:00:33;;;;;;;24.60;15.32;;;5.80;99.90;;;;;;6149328;23;20362;-87
2022/11/30 07:02:58;;;;;;;28.30;16.65;;;7.50;99.90;;;;;;6122748;23;20026;-90
2022/11/30 07:05:24;;;;;;;26.83;14.82;;;5.70;99.90;;;;;;6149410;23;20014;-82
2022/11/30 07:07:50;;;;;;;25.25;15.48;;;5.70;99.90;;;;;;6150474;23;20017;-88
2022/11/30 07:10:16;;;;;;;23.85;14.60;;;7.60;99.90;;;;;;6126756;23;20056;-88
2022/11/30 07:12:44;;;;;;;25.02;14.93;;;5.70;99.90;;;;;;6129388;23;20017;-90
2022/11/30 07:15:10;;;;;;;24.75;14.93;;;6.80;99.90;;;;;;6128884;23;20025;-91
2022/11/30 07:17:48;;;;;;;26.88;16.10;;;5.80;99.90;;;;;;6129117;23;20025;-90
2022/11/30 07:20:21;;;;;;;24.05;15.43;;;5.50;99.90;;;;;;6154007;23;20077;-90
2022/11/30 07:22:47;;;;;;;29.67;16.55;;;5.40;99.90;;;;;;6153953;23;20092;-90
2022/11/30 07:28:18;;;;;;;28.17;15.80;;;5.30;99.90;;;;;;6156942;23;20025;-89
2022/11/30 07:30:44;;;;;;;28.70;15.70;;;5.40;99.90;;;;;;6131816;23;20017;-89
2022/11/30 07:33:14;;;;;;;22.02;13.55;;;6.70;99.90;;;;;;6131409;23;20426;-92
2022/11/30 07:35:40;;;;;;;22.13;13.75;;;5.30;99.90;;;;;;6130882;23;20073;-87
2022/11/30 07:38:12;;;;;;;22.20;14.05;;;5.10;99.90;;;;;;6106159;23;20056;-87
2022/11/30 07:40:46;;;;;;;23.40;13.15;;;5.40;99.90;;;;;;6129977;23;20025;-87
2022/11/30 07:43:15;;;;;;;22.95;14.00;;;5.00;99.90;;;;;;6131893;23;20508;-90
2022/11/30 07:46:07;;;;;;;;;;;;;;;;;;;;;
2022/11/30 07:48:46;;;;;;;24.23;13.65;;;7.00;99.90;;;;;;6155228;23;20021;-88
2022/11/30 07:51:28;;;;;;;24.23;14.52;;;5.10;99.90;;;;;;6155104;23;20055;-88
2022/11/30 07:54:10;;;;;;;;;;;;;;;;;;;;;
2022/11/30 07:57:07;;;;;;;29.15;16.00;;;5.10;99.90;;;;;;6155712;23;20036;-88
2022/11/30 07:59:55;;;;;;;44.63;17.02;;;4.90;99.90;;;;;;6154913;23;20099;-90
2022/11/30 08:02:21;;;;;;;25.58;15.63;;;4.80;99.90;;;;;;6115371;23;20024;-91
2022/11/30 08:04:59;;;;;;;26.65;15.98;;;5.00;99.90;;;;;;6130364;23;20032;-86
2022/11/30 08:07:30;;;;;;;55.33;11.93;;;5.00;99.90;;;;;;6111440;23;20518;-88
2022/11/30 08:10:01;;;;;;;60.45;9.93;;;4.20;99.90;;;;;;6132300;23;20017;-91
2022/11/30 08:12:27;;;;;;;13.98;8.70;;;;;;;;;;6131124;23;20472;-88
2022/11/30 08:14:53;;;;;;;195.60;15.13;;;4.80;99.90;;;;;;6127854;23;20021;-86
2022/11/30 08:17:19;;;;;;;90.40;10.18;;;5.30;99.90;;;;;;6159429;23;20025;-89
2022/11/30 08:19:47;;;;;;;49.28;7.78;;;4.60;99.90;;;;;;6160088;23;20016;-90
2022/11/30 08:22:36;;;;;;;32.95;7.90;;;4.60;99.90;;;;;;6133017;23;20440;-91
2022/11/30 08:25:10;;;;;;;72.35;9.50;;;4.60;99.90;;;;;;6135961;23;20021;-89
2022/11/30 08:27:38;;;;;;;64.22;10.18;;;4.60;99.90;;;;;;6168588;23;20028;-90
2022/11/30 08:30:07;;;;;;;78.05;10.13;;;5.20;99.90;;;;;;6129398;23;20013;-90
2022/11/30 08:32:33;;;;;;;82.88;10.13;;;3.80;99.90;;;;;;6129661;23;20024;-90
2022/11/30 08:34:59;;;;;;;11.73;7.28;;;4.50;99.90;;;;;;6129759;23;20013;-90
2022/11/30 08:37:25;;;;;;;65.07;8.85;;;5.20;99.90;;;;;;6153099;23;20758;-89
2022/11/30 08:39:51;;;;;;;56.17;8.98;;;5.40;99.90;;;;;;6151906;23;20044;-89
2022/11/30 08:42:17;;;;;;;39.28;8.02;;;6.60;99.90;;;;;;6153655;23;20080;-89
2022/11/30 08:44:43;;;;;;;17.95;7.95;;;3.40;99.90;;;;;;6130074;23;20021;-88
2022/11/30 08:47:11;;;;;;;11.95;8.10;;;4.90;99.90;;;;;;6131433;23;20743;-88
2022/11/30 08:49:40;;;;;;;14.60;9.00;;;5.90;99.90;;;;;;6155218;23;20087;-87
2022/11/30 08:52:05;;;;;;;12.88;8.55;;;6.00;99.90;;;;;;6131327;23;20021;-88
2022/11/30 08:54:32;;;;;;;13.35;8.60;;;5.30;99.90;;;;;;6083716;23;20083;-86
2022/11/30 08:56:58;;;;;;;12.43;8.35;;;4.80;99.90;;;;;;6130566;23;20024;-88
2022/11/30 08:59:24;;;;;;;15.93;10.68;;;4.80;99.90;;;;;;6130449;23;20070;-89
2022/11/30 09:01:49;;;;;;;20.15;11.55;;;4.80;99.90;;;;;;6105779;23;20021;-88
2022/11/30 09:04:20;;;;;;;19.48;11.90;;;4.80;99.90;;;;;;6155649;23;20017;-86
2022/11/30 09:06:46;;;;;;;20.27;11.23;;;6.30;99.90;;;;;;6155724;23;20017;-88
2022/11/30 09:09:12;;;;;;;20.27;11.50;;;4.90;99.90;;;;;;6130987;23;20441;-88
2022/11/30 09:11:38;;;;;;;16.48;10.80;;;;;;;;;;6130344;23;20021;-89
2022/11/30 09:14:04;;;;;;;24.85;14.13;;;5.00;99.90;;;;;;6130416;23;20024;-88
2022/11/30 09:16:30;;;;;;;26.48;13.68;;;4.90;99.90;;;;;;6130788;23;20029;-88
2022/11/30 09:18:59;;;;;;;25.83;14.55;;;6.60;99.90;;;;;;6130004;23;20013;-87
2022/11/30 09:21:25;;;;;;;25.25;13.82;;;6.70;99.90;;;;;;6128650;23;20017;-81
2022/11/30 09:23:54;;;;;;;24.20;13.80;;;5.30;99.90;;;;;;6127799;23;20019;-85
2022/11/30 09:26:24;;;;;;;24.30;13.68;;;6.50;99.90;;;;;;6129037;23;20025;-85
2022/11/30 09:28:53;;;;;;;26.58;14.40;;;5.40;99.90;;;;;;6128392;23;20096;-88
2022/11/30 09:31:24;;;;;;;23.35;13.68;;;7.40;99.90;;;;;;6126690;23;20128;-84
2022/11/30 09:33:52;;;;;;;22.77;13.60;;;6.00;99.90;;;;;;6128762;23;20056;-85
2022/11/30 09:36:22;;;;;;;25.35;14.77;;;6.10;99.90;;;;;;6129640;23;20024;-85
2022/11/30 09:38:48;;;;;;;25.52;15.48;;;6.40;99.90;;;;;;6128926;23;20057;-84
2022/11/30 09:41:19;;;;;;;27.13;13.95;;;6.20;99.90;;;;;;6130172;23;20021;-85
2022/11/30 09:44:17;;;;;;;25.08;14.32;;;6.10;99.90;;;;;;6154979;23;20028;-91
2022/11/30 09:54:07;;;;;;;;;;;;;;;;;;;;;
2022/11/30 09:57:08;;;;;;;23.30;13.90;;;6.10;99.90;;;;;;6151462;23;20024;-90
2022/11/30 10:00:22;;;;;;;22.90;13.98;;;5.90;99.90;;;;;;6125723;23;20024;-90
2022/11/30 10:03:22;;;;;;;25.75;14.40;;;7.90;99.90;;;;;;6135358;23;20033;-90
2022/11/30 10:06:48;;;;;;;;;;;;;;;;;;;;;
2022/11/30 10:09:52;;;;;;;26.33;14.35;;;6.20;99.90;;;;;;6157255;23;20028;-89
2022/11/30 10:13:20;;;;;;;25.35;15.45;;;6.50;99.90;;;;;;6117473;23;20095;-89
2022/11/30 10:16:22;;;;;;;26.05;16.15;;;7.20;99.90;;;;;;6153654;23;20257;-90
2022/11/30 10:22:12;;;;;;;33.55;18.45;;;8.60;99.90;;;;;;6139406;23;20017;-85
2022/11/30 10:25:16;;;;;;;31.35;19.25;;;9.20;99.90;;;;;;6126440;23;20026;-88
2022/11/30 10:28:05;;;;;;;31.30;18.58;;;9.00;99.90;;;;;;6124748;23;20033;-84
2022/11/30 10:30:35;;;;;;;30.52;18.02;;;8.90;99.90;;;;;;6121481;23;20124;-86
2022/11/30 10:33:50;;;;;;;30.40;18.65;;;9.00;99.90;;;;;;6153510;23;20180;-91
2022/11/30 10:36:53;;;;;;;32.58;18.88;;;9.20;99.90;;;;;;6146325;23;20017;-91
2022/11/30 10:39:39;;;;;;;32.60;18.93;;;8.50;99.90;;;;;;6169614;23;20029;-91
2022/11/30 10:42:34;;;;;;;30.25;18.02;;;9.50;99.90;;;;;;6150809;23;20028;-90
2022/11/30 10:45:27;;;;;;;27.20;18.23;;;9.50;99.90;;;;;;6150526;23;20026;-92
2022/11/30 10:48:33;;;;;;;32.60;19.27;;;9.20;99.90;;;;;;6150413;23;20018;-91
2022/11/30 10:51:11;;;;;;;;;;;;;;;;;;;;;
2022/11/30 10:54:09;;;;;;;;;;;;;;;;;;;;;
2022/11/30 10:57:08;;;;;;;;;;;;;;;;;;;;;
2022/11/30 11:00:12;;;;;;;33.20;19.48;;;7.50;99.90;;;;;;6134850;23;20325;-91
2022/11/30 11:03:23;;;;;;;31.65;18.80;;;8.70;99.90;;;;;;6104943;23;20822;-90
2022/11/30 11:06:34;;;;;;;27.60;17.48;;;8.40;99.90;;;;;;6155430;23;20345;-92
2022/11/30 11:09:45;;;;;;;;;;;;;;;;;;;;;
2022/11/30 11:12:18;;;;;;;29.38;17.92;;;8.40;99.90;;;;;;6154350;23;20021;-91
2022/11/30 11:15:26;;;;;;;31.52;18.08;;;8.30;99.90;;;;;;6158294;23;20037;-92
2022/11/30 11:17:53;;;;;;;30.02;18.08;;;8.50;99.90;;;;;;6089986;23;20107;-88
2022/11/30 11:20:41;;;;;;;29.77;18.10;;;8.10;99.90;;;;;;6157544;23;20336;-87
2022/11/30 11:23:26;;;;;;;30.67;18.10;;;8.30;99.90;;;;;;6154540;23;20099;-88
2022/11/30 11:25:52;;;;;;;31.38;19.23;;;8.10;99.90;;;;;;6155037;23;20079;-89
2022/11/30 11:28:23;;;;;;;31.13;19.30;;;8.20;99.90;;;;;;6155654;23;20024;-87
2022/11/30 11:30:53;;;;;;;30.63;18.92;;;8.20;99.90;;;;;;6155584;23;20742;-84
2022/11/30 11:33:24;;;;;;;31.15;19.90;;;8.00;99.90;;;;;;6155176;23;20025;-86
2022/11/30 11:35:52;;;;;;;32.22;19.40;;;7.40;99.90;;;;;;6155773;23;20393;-85
2022/11/30 11:38:41;;;;;;;32.78;20.00;;;7.80;99.90;;;;;;6130290;23;20028;-86
2022/11/30 11:41:27;;;;;;;32.67;19.83;;;7.80;99.90;;;;;;6154308;23;20028;-89
2022/11/30 11:44:07;;;;;;;32.17;19.50;;;7.90;99.90;;;;;;6155696;23;20024;-89
2022/11/30 11:46:51;;;;;;;32.63;19.33;;;7.90;99.90;;;;;;6107569;23;20028;-84
2022/11/30 11:50:01;;;;;;;29.63;20.13;;;7.80;99.90;;;;;;6156014;23;20029;-85
2022/11/30 11:52:24;;;;;;;28.83;17.83;;;7.80;99.90;;;;;;6151654;23;20033;-86
2022/11/30 11:55:01;;;;;;;28.10;17.23;;;8.20;99.90;;;;;;6155949;23;20517;-84
2022/11/30 11:58:05;;;;;;;27.48;16.08;;;7.80;99.90;;;;;;6156572;23;20017;-85
2022/11/30 12:00:32;;;;;;;30.08;17.27;;;7.80;99.90;;;;;;6131277;23;20404;-88
2022/11/30 12:03:07;;;;;;;28.38;17.25;;;7.90;99.90;;;;;;6128644;23;20029;-86
2022/11/30 12:05:34;;;;;;;28.48;17.35;;;7.90;99.90;;;;;;6154514;23;20048;-86
2022/11/30 12:08:39;;;;;;;31.00;18.10;;;7.90;99.90;;;;;;6130153;23;20019;-87
2022/11/30 12:11:24;;;;;;;27.15;16.52;;;7.90;99.90;;;;;;6131489;23;20095;-85
2022/11/30 12:13:52;;;;;;;28.08;16.63;;;8.00;99.90;;;;;;6156555;23;20020;-85
2022/11/30 12:17:03;;;;;;;;;;;;;;;;;;;;;
2022/11/30 12:19:56;;;;;;;28.58;17.65;;;7.90;99.90;;;;;;6126581;23;20021;-86
2022/11/30 12:22:30;;;;;;;27.73;17.08;;;8.00;99.90;;;;;;6125231;23;20032;-85
2022/11/30 12:25:28;;;;;;;29.30;17.48;;;8.10;99.90;;;;;;6125212;23;20032;-90
2022/11/30 12:28:16;;;;;;;30.75;18.55;;;8.10;99.90;;;;;;6125942;23;20572;-86
2022/11/30 12:31:10;;;;;;;31.48;17.60;;;8.00;99.90;;;;;;6150215;23;20013;-85
2022/11/30 12:33:48;;;;;;;26.08;15.35;;;6.60;99.90;;;;;;6126938;23;20310;-87
2022/11/30 12:36:39;;;;;;;30.02;18.02;;;8.10;99.90;;;;;;6125896;23;20017;-86
2022/11/30 12:39:16;;;;;;;28.13;17.05;;;8.40;99.90;;;;;;6149652;23;20037;-86
2022/11/30 12:41:45;;;;;;;28.00;16.23;;;8.40;99.90;;;;;;6125154;23;20022;-85
2022/11/30 12:44:27;;;;;;;25.40;16.40;;;8.40;99.90;;;;;;6124562;23;20052;-87
2022/11/30 12:46:59;;;;;;;30.52;17.85;;;8.10;99.90;;;;;;6149302;23;20022;-86
2022/11/30 12:49:34;;;;;;;26.63;16.83;;;8.20;99.90;;;;;;6151317;23;20458;-85
2022/11/30 12:52:19;;;;;;;26.30;17.48;;;8.20;99.90;;;;;;6122722;23;20040;-89
2022/11/30 12:55:04;;;;;;;29.20;16.98;;;8.00;99.90;;;;;;6149612;23;20041;-86
2022/11/30 12:57:48;;;;;;;24.23;16.35;;;8.10;99.90;;;;;;6123623;23;20028;-86
2022/11/30 13:00:22;;;;;;;26.80;15.88;;;8.00;99.90;;;;;;6145895;23;20029;-87
2022/11/30 13:03:19;;;;;;;26.70;16.35;;;8.10;99.90;;;;;;6123474;23;20021;-86
2022/11/30 13:05:50;;;;;;;26.17;16.23;;;8.30;99.90;;;;;;6148929;23;20050;-86
2022/11/30 13:08:56;;;;;;;26.00;16.80;;;8.00;99.90;;;;;;6151296;23;20071;-86
2022/11/30 13:11:34;;;;;;;29.48;16.75;;;8.20;99.90;;;;;;6125689;23;20081;-85
2022/11/30 13:14:08;;;;;;;32.13;17.05;;;8.30;99.90;;;;;;6127176;23;20124;-88
2022/11/30 13:16:34;;;;;;;27.15;16.73;;;8.40;99.90;;;;;;6102576;23;20445;-85
2022/11/30 13:19:57;;;;;;;29.67;17.10;;;8.30;99.90;;;;;;6149768;23;20480;-85
2022/11/30 13:23:01;;;;;;;25.30;16.55;;;8.40;99.90;;;;;;6148830;23;20021;-86
2022/11/30 13:25:54;;;;;;;24.70;15.82;;;8.30;99.90;;;;;;6143846;23;20277;-89
2022/11/30 13:28:45;;;;;;;26.92;15.85;;;8.30;99.90;;;;;;6124875;23;20024;-86
2022/11/30 13:31:46;;;;;;;26.02;16.33;;;8.10;99.90;;;;;;6148164;23;20660;-89
2022/11/30 13:34:27;;;;;;;26.13;16.38;;;8.10;99.90;;;;;;6144086;23;20092;-85
2022/11/30 13:37:05;;;;;;;27.23;17.88;;;8.10;99.90;;;;;;6122452;23;20468;-84
2022/11/30 13:39:54;;;;;;;27.50;17.45;;;8.00;99.90;;;;;;6121647;23;20021;-86
2022/11/30 13:42:31;;;;;;;25.85;16.05;;;8.00;99.90;;;;;;6146560;23;20022;-88
2022/11/30 13:45:17;;;;;;;25.15;16.45;;;7.90;99.90;;;;;;6146168;23;20858;-86